RFR9411 ESPA-EGXC
Flight info
| Callsign | RFR9411 |
|---|---|
| Flight time | N/A |
| Altitude | 45000 |
| Route | RISEM DCT AXRAM DCT ATLAP DCT PENUN DCT OTR |
| Aircraft | EUFI/M-SDGRT/S |
Departure
| Time | N/A |
|---|---|
| Airport | Luleå Airport (ESPA) |
Arrival
| Time | 2026-04-12 20:55 |
|---|---|
| Airport | RAF Coningsby (EGXC) |
| Time | Latitude | Longitude | Altitude | Speed | Heading |
|---|---|---|---|---|---|
| 2026-04-12 19:34 | 61.27870 | 11.78493 | 45225 ft | 510 kts | 219° |
| 2026-04-12 19:35 | 61.22559 | 11.68744 | 45220 ft | 508 kts | 219° |
| 2026-04-12 19:35 | 61.17242 | 11.59038 | 45218 ft | 511 kts | 219° |
| 2026-04-12 19:36 | 61.11900 | 11.49329 | 45213 ft | 510 kts | 219° |
| 2026-04-12 19:36 | 61.06572 | 11.39691 | 45217 ft | 512 kts | 219° |
| 2026-04-12 19:37 | 61.01217 | 11.30050 | 45210 ft | 511 kts | 219° |
| 2026-04-12 19:37 | 60.95835 | 11.20403 | 45211 ft | 513 kts | 219° |
| 2026-04-12 19:38 | 60.90455 | 11.10807 | 45207 ft | 511 kts | 219° |
| 2026-04-12 19:38 | 60.85938 | 11.02784 | 45211 ft | 514 kts | 219° |
| 2026-04-12 19:39 | 60.80574 | 10.93296 | 45195 ft | 512 kts | 219° |
| 2026-04-12 19:39 | 60.75163 | 10.83769 | 45193 ft | 514 kts | 219° |
| 2026-04-12 19:40 | 60.69760 | 10.74301 | 45192 ft | 512 kts | 219° |
| 2026-04-12 19:40 | 60.64347 | 10.64859 | 45193 ft | 514 kts | 219° |
| 2026-04-12 19:41 | 60.58919 | 10.55432 | 45186 ft | 512 kts | 219° |
| 2026-04-12 19:41 | 60.53515 | 10.46090 | 45182 ft | 513 kts | 219° |
| 2026-04-12 19:42 | 60.48042 | 10.36674 | 45181 ft | 511 kts | 219° |
| 2026-04-12 19:42 | 60.42597 | 10.27347 | 45175 ft | 512 kts | 219° |
| 2026-04-12 19:43 | 60.34457 | 10.13485 | 45167 ft | 511 kts | 218° |
| 2026-04-12 19:43 | 60.29054 | 10.04333 | 45173 ft | 509 kts | 218° |
| 2026-04-12 19:44 | 60.23607 | 9.95151 | 45176 ft | 511 kts | 218° |
| 2026-04-12 19:44 | 60.18160 | 9.86008 | 45172 ft | 508 kts | 218° |
| 2026-04-12 19:45 | 60.12787 | 9.76824 | 45180 ft | 510 kts | 223° |
| 2026-04-12 19:45 | 60.07567 | 9.67188 | 45173 ft | 508 kts | 221° |
| 2026-04-12 19:46 | 60.02368 | 9.57606 | 45171 ft | 508 kts | 220° |
| 2026-04-12 19:46 | 59.97164 | 9.48126 | 45170 ft | 507 kts | 220° |
| 2026-04-12 19:47 | 59.91919 | 9.38643 | 45168 ft | 507 kts | 220° |
| 2026-04-12 19:47 | 59.86716 | 9.29256 | 45165 ft | 507 kts | 220° |
| 2026-04-12 19:48 | 59.81454 | 9.19797 | 45166 ft | 507 kts | 220° |
| 2026-04-12 19:48 | 59.76212 | 9.10423 | 45177 ft | 507 kts | 220° |
| 2026-04-12 19:49 | 59.70968 | 9.01088 | 45166 ft | 507 kts | 220° |
| 2026-04-12 19:49 | 59.65706 | 8.91761 | 45161 ft | 506 kts | 220° |
| 2026-04-12 19:50 | 59.60438 | 8.82464 | 45162 ft | 508 kts | 220° |
| 2026-04-12 19:50 | 59.55202 | 8.73262 | 45152 ft | 507 kts | 220° |
| 2026-04-12 19:51 | 59.49932 | 8.64042 | 45158 ft | 509 kts | 220° |
| 2026-04-12 19:51 | 59.44646 | 8.54834 | 45149 ft | 507 kts | 220° |
| 2026-04-12 19:52 | 59.39339 | 8.45630 | 45150 ft | 509 kts | 220° |
| 2026-04-12 19:52 | 59.34038 | 8.36475 | 45150 ft | 507 kts | 220° |
| 2026-04-12 19:53 | 59.28728 | 8.27346 | 45152 ft | 509 kts | 220° |
| 2026-04-12 19:53 | 59.23410 | 8.18242 | 45144 ft | 507 kts | 220° |
| 2026-04-12 19:54 | 59.18086 | 8.09165 | 45147 ft | 508 kts | 220° |
| 2026-04-12 19:54 | 59.12771 | 8.00145 | 45141 ft | 506 kts | 219° |
| 2026-04-12 19:55 | 59.07443 | 7.91139 | 45145 ft | 506 kts | 219° |
| 2026-04-12 19:55 | 59.02163 | 7.82253 | 45142 ft | 505 kts | 219° |
| 2026-04-12 19:56 | 58.96850 | 7.73349 | 45136 ft | 504 kts | 219° |
| 2026-04-12 19:56 | 58.91618 | 7.64619 | 45128 ft | 504 kts | 219° |
| 2026-04-12 19:57 | 58.86309 | 7.55796 | 45129 ft | 502 kts | 219° |
| 2026-04-12 19:57 | 58.81002 | 7.47013 | 45122 ft | 502 kts | 219° |
| 2026-04-12 19:58 | 58.75702 | 7.38280 | 45120 ft | 501 kts | 219° |
| 2026-04-12 19:58 | 58.70398 | 7.29575 | 45117 ft | 500 kts | 219° |
| 2026-04-12 19:59 | 58.65096 | 7.20909 | 45107 ft | 500 kts | 219° |
| 2026-04-12 19:59 | 58.59796 | 7.12284 | 45103 ft | 499 kts | 219° |
| 2026-04-12 20:00 | 58.54493 | 7.03689 | 45095 ft | 499 kts | 218° |
| 2026-04-12 20:00 | 58.49202 | 6.95145 | 45108 ft | 500 kts | 218° |
| 2026-04-12 20:01 | 58.43863 | 6.86563 | 45096 ft | 499 kts | 218° |
| 2026-04-12 20:01 | 58.38564 | 6.78080 | 45072 ft | 496 kts | 218° |
| 2026-04-12 20:02 | 58.33269 | 6.69637 | 45072 ft | 497 kts | 218° |
| 2026-04-12 20:02 | 58.27968 | 6.61215 | 45064 ft | 495 kts | 218° |
| 2026-04-12 20:03 | 58.22682 | 6.52854 | 45061 ft | 495 kts | 218° |
| 2026-04-12 20:03 | 58.17391 | 6.44520 | 45048 ft | 494 kts | 218° |
| 2026-04-12 20:04 | 58.12140 | 6.36278 | 45044 ft | 493 kts | 218° |
| 2026-04-12 20:04 | 58.06846 | 6.28005 | 45046 ft | 493 kts | 218° |
| 2026-04-12 20:05 | 58.01561 | 6.19777 | 45041 ft | 491 kts | 218° |
| 2026-04-12 20:05 | 57.96288 | 6.11599 | 45031 ft | 491 kts | 218° |
| 2026-04-12 20:06 | 57.91012 | 6.03451 | 45032 ft | 491 kts | 217° |
| 2026-04-12 20:06 | 57.85714 | 5.95299 | 45029 ft | 492 kts | 217° |
| 2026-04-12 20:07 | 57.80411 | 5.87173 | 45023 ft | 492 kts | 217° |
| 2026-04-12 20:07 | 57.75095 | 5.79058 | 45022 ft | 493 kts | 217° |
| 2026-04-12 20:08 | 57.69805 | 5.71015 | 45012 ft | 493 kts | 217° |
| 2026-04-12 20:08 | 57.64467 | 5.62929 | 45008 ft | 494 kts | 217° |
| 2026-04-12 20:09 | 57.59116 | 5.54855 | 45005 ft | 494 kts | 217° |
| 2026-04-12 20:09 | 57.53754 | 5.46798 | 45001 ft | 495 kts | 217° |
| 2026-04-12 20:10 | 57.48389 | 5.38767 | 45000 ft | 494 kts | 217° |
| 2026-04-12 20:10 | 57.43026 | 5.30770 | 44997 ft | 496 kts | 217° |
| 2026-04-12 20:11 | 57.37636 | 5.22762 | 44990 ft | 495 kts | 217° |
| 2026-04-12 20:11 | 57.32260 | 5.14808 | 44989 ft | 496 kts | 217° |
| 2026-04-12 20:12 | 57.26867 | 5.06858 | 44982 ft | 495 kts | 217° |
| 2026-04-12 20:12 | 57.21478 | 4.98946 | 44977 ft | 496 kts | 217° |
| 2026-04-12 20:13 | 57.16120 | 4.91110 | 44978 ft | 494 kts | 217° |
| 2026-04-12 20:14 | 57.08161 | 4.79029 | 44976 ft | 496 kts | 221° |
| 2026-04-12 20:14 | 57.02973 | 4.70671 | 44969 ft | 495 kts | 220° |
| 2026-04-12 20:15 | 56.97819 | 4.62302 | 44965 ft | 495 kts | 219° |
| 2026-04-12 20:15 | 56.92650 | 4.53962 | 44959 ft | 494 kts | 219° |
| 2026-04-12 20:16 | 56.87474 | 4.45680 | 44962 ft | 495 kts | 219° |
| 2026-04-12 20:16 | 56.82288 | 4.37401 | 44953 ft | 494 kts | 219° |
| 2026-04-12 20:17 | 56.77119 | 4.29174 | 44955 ft | 494 kts | 219° |
| 2026-04-12 20:17 | 56.71932 | 4.20954 | 44950 ft | 494 kts | 219° |
| 2026-04-12 20:18 | 56.66754 | 4.12781 | 44946 ft | 492 kts | 219° |
| 2026-04-12 20:18 | 56.61572 | 4.04631 | 44943 ft | 493 kts | 219° |
| 2026-04-12 20:19 | 56.56381 | 3.96498 | 44936 ft | 492 kts | 219° |
| 2026-04-12 20:19 | 56.51197 | 3.88405 | 44934 ft | 492 kts | 219° |
| 2026-04-12 20:20 | 56.46135 | 3.80534 | 44924 ft | 491 kts | 219° |
| 2026-04-12 20:20 | 56.40937 | 3.72479 | 44919 ft | 492 kts | 219° |
| 2026-04-12 20:21 | 56.35788 | 3.64531 | 44911 ft | 491 kts | 219° |
| 2026-04-12 20:21 | 56.30592 | 3.56539 | 44905 ft | 490 kts | 219° |
| 2026-04-12 20:22 | 56.25406 | 3.48593 | 44901 ft | 490 kts | 219° |
| 2026-04-12 20:22 | 56.20204 | 3.40651 | 44899 ft | 489 kts | 219° |
| 2026-04-12 20:23 | 56.15015 | 3.32758 | 44899 ft | 490 kts | 219° |
| 2026-04-12 20:23 | 56.09817 | 3.24880 | 44903 ft | 488 kts | 219° |
| 2026-04-12 20:24 | 56.04614 | 3.17025 | 44910 ft | 489 kts | 219° |
| 2026-04-12 20:24 | 55.99423 | 3.09215 | 44913 ft | 487 kts | 219° |
| 2026-04-12 20:25 | 55.95103 | 3.02737 | 44912 ft | 488 kts | 219° |
| 2026-04-12 20:25 | 55.89895 | 2.94954 | 44909 ft | 487 kts | 219° |
| 2026-04-12 20:26 | 55.84701 | 2.87220 | 44911 ft | 487 kts | 219° |
| 2026-04-12 20:26 | 55.79496 | 2.79497 | 44911 ft | 487 kts | 218° |
| 2026-04-12 20:27 | 55.74291 | 2.71803 | 44907 ft | 486 kts | 218° |
| 2026-04-12 20:27 | 55.69087 | 2.64136 | 44903 ft | 487 kts | 218° |
| 2026-04-12 20:28 | 55.63882 | 2.56495 | 44901 ft | 485 kts | 218° |
| 2026-04-12 20:28 | 55.58670 | 2.48873 | 44900 ft | 486 kts | 218° |
| 2026-04-12 20:28 | 55.56044 | 2.45043 | 44389 ft | 491 kts | 218° |
| 2026-04-12 20:29 | 55.53440 | 2.41250 | 43683 ft | 478 kts | 218° |
| 2026-04-12 20:29 | 55.50913 | 2.37577 | 43001 ft | 469 kts | 218° |
| 2026-04-12 20:29 | 55.48382 | 2.33906 | 42349 ft | 474 kts | 218° |
| 2026-04-12 20:29 | 55.45813 | 2.30185 | 41715 ft | 480 kts | 218° |
| 2026-04-12 20:30 | 55.43344 | 2.26613 | 41143 ft | 484 kts | 218° |
| 2026-04-12 20:30 | 55.40734 | 2.22847 | 40559 ft | 486 kts | 218° |
| 2026-04-12 20:30 | 55.38114 | 2.19071 | 39988 ft | 487 kts | 218° |
| 2026-04-12 20:30 | 55.35493 | 2.15300 | 39431 ft | 488 kts | 219° |
| 2026-04-12 20:31 | 55.32861 | 2.11521 | 38884 ft | 488 kts | 219° |
| 2026-04-12 20:31 | 55.30233 | 2.07754 | 38295 ft | 488 kts | 219° |
| 2026-04-12 20:31 | 55.27632 | 2.04031 | 37637 ft | 487 kts | 219° |
| 2026-04-12 20:31 | 55.25012 | 2.00289 | 36993 ft | 484 kts | 219° |
| 2026-04-12 20:32 | 55.22421 | 1.96595 | 36366 ft | 478 kts | 219° |
| 2026-04-12 20:32 | 55.19846 | 1.92930 | 35755 ft | 474 kts | 219° |
| 2026-04-12 20:32 | 55.17297 | 1.89308 | 35157 ft | 471 kts | 219° |
| 2026-04-12 20:32 | 55.14757 | 1.85704 | 34568 ft | 469 kts | 219° |
| 2026-04-12 20:33 | 55.12227 | 1.82122 | 33997 ft | 467 kts | 219° |
| 2026-04-12 20:33 | 55.09708 | 1.78559 | 33339 ft | 465 kts | 219° |
| 2026-04-12 20:33 | 55.07192 | 1.75008 | 32669 ft | 464 kts | 219° |
| 2026-04-12 20:33 | 55.04680 | 1.71468 | 32019 ft | 464 kts | 219° |
| 2026-04-12 20:34 | 55.02174 | 1.67942 | 31385 ft | 463 kts | 218° |
| 2026-04-12 20:34 | 54.99662 | 1.64415 | 30765 ft | 463 kts | 218° |
| 2026-04-12 20:34 | 54.97148 | 1.60890 | 30157 ft | 463 kts | 218° |
| 2026-04-12 20:34 | 54.94638 | 1.57376 | 29464 ft | 464 kts | 218° |
| 2026-04-12 20:35 | 54.92118 | 1.53855 | 28746 ft | 466 kts | 218° |
| 2026-04-12 20:35 | 54.89579 | 1.50313 | 28044 ft | 469 kts | 218° |
| 2026-04-12 20:35 | 54.87054 | 1.46796 | 27370 ft | 472 kts | 218° |
| 2026-04-12 20:35 | 54.84480 | 1.43217 | 26698 ft | 475 kts | 218° |
| 2026-04-12 20:36 | 54.81887 | 1.39617 | 26043 ft | 479 kts | 218° |
| 2026-04-12 20:36 | 54.79276 | 1.35999 | 25404 ft | 482 kts | 218° |
| 2026-04-12 20:36 | 54.76647 | 1.32362 | 24781 ft | 485 kts | 218° |
| 2026-04-12 20:36 | 54.74006 | 1.28713 | 24172 ft | 487 kts | 218° |
| 2026-04-12 20:37 | 54.71342 | 1.25041 | 23564 ft | 490 kts | 218° |
| 2026-04-12 20:37 | 54.68671 | 1.21365 | 22866 ft | 491 kts | 218° |
| 2026-04-12 20:37 | 54.65998 | 1.17693 | 22173 ft | 492 kts | 218° |
| 2026-04-12 20:37 | 54.63314 | 1.14011 | 21491 ft | 493 kts | 218° |
| 2026-04-12 20:38 | 54.60620 | 1.10322 | 20818 ft | 493 kts | 218° |
| 2026-04-12 20:38 | 54.57926 | 1.06640 | 20163 ft | 493 kts | 218° |
| 2026-04-12 20:38 | 54.55264 | 1.03007 | 19965 ft | 484 kts | 217° |
| 2026-04-12 20:38 | 54.52614 | 0.99399 | 19281 ft | 487 kts | 217° |
| 2026-04-12 20:39 | 54.49916 | 0.95731 | 18537 ft | 501 kts | 217° |
| 2026-04-12 20:39 | 54.47181 | 0.92018 | 17769 ft | 514 kts | 217° |
| 2026-04-12 20:39 | 54.44317 | 0.88139 | 16940 ft | 519 kts | 217° |
| 2026-04-12 20:39 | 54.41435 | 0.84242 | 16132 ft | 577 kts | 217° |
| 2026-04-12 20:40 | 54.38590 | 0.80397 | 15367 ft | 498 kts | 218° |
| 2026-04-12 20:40 | 54.35795 | 0.76633 | 14613 ft | 513 kts | 217° |
| 2026-04-12 20:40 | 54.32992 | 0.72864 | 13875 ft | 510 kts | 218° |
| 2026-04-12 20:40 | 54.30211 | 0.69125 | 13079 ft | 506 kts | 218° |
| 2026-04-12 20:41 | 54.27461 | 0.65442 | 12270 ft | 501 kts | 218° |
| 2026-04-12 20:41 | 54.24737 | 0.61797 | 11490 ft | 495 kts | 218° |
| 2026-04-12 20:41 | 54.22027 | 0.58176 | 10722 ft | 491 kts | 218° |
| 2026-04-12 20:41 | 54.19343 | 0.54596 | 9975 ft | 489 kts | 218° |
| 2026-04-12 20:42 | 54.16673 | 0.51043 | 9557 ft | 489 kts | 218° |
| 2026-04-12 20:42 | 54.14009 | 0.47502 | 9288 ft | 486 kts | 218° |
| 2026-04-12 20:42 | 54.11347 | 0.43970 | 9021 ft | 483 kts | 218° |
| 2026-04-12 20:42 | 54.08687 | 0.40447 | 8753 ft | 482 kts | 218° |
| 2026-04-12 20:43 | 54.06037 | 0.36941 | 8487 ft | 483 kts | 218° |
| 2026-04-12 20:43 | 54.03398 | 0.33458 | 8229 ft | 481 kts | 218° |
| 2026-04-12 20:43 | 54.00766 | 0.29988 | 7962 ft | 478 kts | 218° |
| 2026-04-12 20:43 | 53.98133 | 0.26524 | 7704 ft | 476 kts | 218° |
| 2026-04-12 20:44 | 53.95546 | 0.23125 | 7452 ft | 475 kts | 218° |
| 2026-04-12 20:44 | 53.92933 | 0.19697 | 7198 ft | 475 kts | 218° |
| 2026-04-12 20:44 | 53.90327 | 0.16286 | 6959 ft | 474 kts | 218° |
| 2026-04-12 20:44 | 53.87761 | 0.12930 | 6748 ft | 433 kts | 218° |
| 2026-04-12 20:45 | 53.85428 | 0.09885 | 6460 ft | 420 kts | 218° |
| 2026-04-12 20:45 | 53.83116 | 0.06873 | 6076 ft | 417 kts | 218° |
| 2026-04-12 20:45 | 53.81008 | 0.04128 | 5781 ft | 370 kts | 218° |
| 2026-04-12 20:45 | 53.78994 | 0.01509 | 5504 ft | 363 kts | 218° |
| 2026-04-12 20:46 | 53.77001 | -0.01079 | 5234 ft | 359 kts | 218° |
| 2026-04-12 20:46 | 53.75015 | -0.03654 | 5039 ft | 359 kts | 218° |
| 2026-04-12 20:46 | 53.73024 | -0.06195 | 4957 ft | 359 kts | 214° |
| 2026-04-12 20:46 | 53.70703 | -0.07659 | 4935 ft | 362 kts | 188° |
| 2026-04-12 20:47 | 53.68179 | -0.07457 | 4927 ft | 364 kts | 173° |
| 2026-04-12 20:47 | 53.65687 | -0.06668 | 4920 ft | 366 kts | 169° |
| 2026-04-12 20:47 | 53.63195 | -0.05732 | 4763 ft | 367 kts | 169° |
| 2026-04-12 20:47 | 53.60709 | -0.05024 | 4300 ft | 362 kts | 174° |
| 2026-04-12 20:48 | 53.58211 | -0.04498 | 4039 ft | 361 kts | 173° |
| 2026-04-12 20:48 | 53.55724 | -0.03841 | 3779 ft | 361 kts | 172° |
| 2026-04-12 20:48 | 53.53240 | -0.03197 | 3521 ft | 360 kts | 173° |
| 2026-04-12 20:48 | 53.50765 | -0.02608 | 3260 ft | 361 kts | 173° |
| 2026-04-12 20:49 | 53.48286 | -0.01985 | 2996 ft | 360 kts | 173° |
| 2026-04-12 20:49 | 53.45835 | -0.01364 | 2734 ft | 356 kts | 173° |
| 2026-04-12 20:49 | 53.43385 | -0.00763 | 2469 ft | 352 kts | 174° |
| 2026-04-12 20:49 | 53.40952 | -0.00159 | 2213 ft | 351 kts | 174° |
| 2026-04-12 20:50 | 53.38578 | 0.00433 | 2083 ft | 350 kts | 174° |
| 2026-04-12 20:50 | 53.36160 | 0.01030 | 2028 ft | 351 kts | 174° |
| 2026-04-12 20:50 | 53.33784 | 0.01617 | 1997 ft | 350 kts | 174° |
| 2026-04-12 20:50 | 53.31344 | 0.02215 | 1991 ft | 349 kts | 174° |
| 2026-04-12 20:51 | 53.28973 | 0.02792 | 1985 ft | 347 kts | 176° |
| 2026-04-12 20:51 | 53.26569 | 0.02544 | 1986 ft | 345 kts | 191° |
| 2026-04-12 20:51 | 53.24250 | 0.01571 | 2030 ft | 341 kts | 208° |
| 2026-04-12 20:51 | 53.22101 | -0.00158 | 2004 ft | 333 kts | 206° |
| 2026-04-12 20:52 | 53.20067 | -0.01720 | 2138 ft | 313 kts | 205° |
| 2026-04-12 20:52 | 53.18102 | -0.03150 | 2144 ft | 304 kts | 205° |
| 2026-04-12 20:52 | 53.16486 | -0.04306 | 2221 ft | 297 kts | 205° |
| 2026-04-12 20:52 | 53.14589 | -0.05654 | 2291 ft | 304 kts | 204° |
| 2026-04-12 20:53 | 53.12490 | -0.07133 | 2371 ft | 348 kts | 207° |
| 2026-04-12 20:53 | 53.10712 | -0.09934 | 2475 ft | 372 kts | 242° |
| 2026-04-12 20:53 | 53.09852 | -0.13833 | 1845 ft | 327 kts | 251° |
| 2026-04-12 20:53 | 53.08825 | -0.15227 | 1834 ft | 209 kts | 97° |
| 2026-04-12 20:54 | 53.08741 | -0.12619 | 1976 ft | 230 kts | 85° |
| 2026-04-12 20:54 | 53.09635 | -0.10842 | 1073 ft | 211 kts | 332° |
| 2026-04-12 20:54 | 53.10047 | -0.12807 | 394 ft | 206 kts | 252° |
| 2026-04-12 20:54 | 53.09622 | -0.15067 | 40 ft | 192 kts | 248° |
| 2026-04-12 20:55 | 53.09279 | -0.16744 | 26 ft | 114 kts | 252° |
| 2026-04-12 20:55 | 53.09110 | -0.17610 | 26 ft | 58 kts | 250° |
| 2026-04-12 20:55 | 53.09003 | -0.18188 | 27 ft | 47 kts | 251° |
| 2026-04-12 20:55 | 53.08926 | -0.18505 | 27 ft | 15 kts | 213° |
| 2026-04-12 20:56 | 53.08831 | -0.18454 | 25 ft | 16 kts | 133° |
| 2026-04-12 20:56 | 53.08788 | -0.18289 | 25 ft | 16 kts | 85° |
| 2026-04-12 20:56 | 53.08775 | -0.18115 | 27 ft | 15 kts | 103° |
| 2026-04-12 20:56 | 53.08766 | -0.17936 | 25 ft | 16 kts | 96° |
| 2026-04-12 20:57 | 53.08753 | -0.17745 | 25 ft | 18 kts | 96° |
| 2026-04-12 20:57 | 53.08740 | -0.17500 | 25 ft | 25 kts | 97° |
| 2026-04-12 20:57 | 53.08724 | -0.17213 | 25 ft | 25 kts | 95° |
| 2026-04-12 20:57 | 53.08708 | -0.16931 | 25 ft | 24 kts | 97° |
| 2026-04-12 20:58 | 53.08693 | -0.16654 | 25 ft | 24 kts | 96° |
| 2026-04-12 20:58 | 53.08767 | -0.16441 | 25 ft | 23 kts | 23° |
| 2026-04-12 20:58 | 53.08919 | -0.16340 | 26 ft | 24 kts | 21° |
| 2026-04-12 20:58 | 53.09069 | -0.16224 | 26 ft | 24 kts | 26° |
| 2026-04-12 20:59 | 53.09206 | -0.16112 | 25 ft | 17 kts | 61° |
| 2026-04-12 20:59 | 53.09168 | -0.15949 | 26 ft | 11 kts | 156° |
| 2026-04-12 20:59 | 53.09099 | -0.15993 | 26 ft | 11 kts | 243° |
| 2026-04-12 20:59 | 53.09098 | -0.16061 | 25 ft | 3 kts | 242° |
| 2026-04-12 21:00 | 53.09094 | -0.16073 | 25 ft | 0 kts | 240° |